sensor_id;sensor_type;location;lat;lon;timestamp;pressure;altitude;pressure_sealevel;temperature;humidity
19510;BME280;9896;42.486;26.506;2023-12-20T00:00:25;100150.13;;;1.53;100.00
19510;BME280;9896;42.486;26.506;2023-12-20T00:02:50;100148.69;;;1.68;100.00
19510;BME280;9896;42.486;26.506;2023-12-20T00:05:16;100143.16;;;1.71;100.00
19510;BME280;9896;42.486;26.506;2023-12-20T00:07:42;100141.19;;;1.73;100.00
19510;BME280;9896;42.486;26.506;2023-12-20T00:10:07;100146.94;;;1.59;100.00
19510;BME280;9896;42.486;26.506;2023-12-20T00:12:33;100143.28;;;2.06;100.00
19510;BME280;9896;42.486;26.506;2023-12-20T00:14:59;100146.44;;;2.19;100.00
19510;BME280;9896;42.486;26.506;2023-12-20T00:17:24;100140.84;;;2.22;100.00
19510;BME280;9896;42.486;26.506;2023-12-20T00:19:50;100145.50;;;2.11;100.00
19510;BME280;9896;42.486;26.506;2023-12-20T00:22:15;100138.81;;;2.07;100.00
19510;BME280;9896;42.486;26.506;2023-12-20T00:24:41;100146.03;;;2.14;100.00
19510;BME280;9896;42.486;26.506;2023-12-20T00:27:06;100131.66;;;2.17;100.00
19510;BME280;9896;42.486;26.506;2023-12-20T00:29:32;100141.06;;;2.29;100.00
19510;BME280;9896;42.486;26.506;2023-12-20T00:31:58;100135.59;;;2.13;100.00
19510;BME280;9896;42.486;26.506;2023-12-20T00:34:23;100132.66;;;2.16;100.00
19510;BME280;9896;42.486;26.506;2023-12-20T00:36:49;100134.47;;;2.15;100.00
19510;BME280;9896;42.486;26.506;2023-12-20T00:39:15;100130.69;;;2.18;100.00
19510;BME280;9896;42.486;26.506;2023-12-20T00:41:40;100123.25;;;2.04;100.00
19510;BME280;9896;42.486;26.506;2023-12-20T00:44:06;100118.69;;;1.96;100.00
19510;BME280;9896;42.486;26.506;2023-12-20T00:46:31;100111.53;;;2.06;100.00
19510;BME280;9896;42.486;26.506;2023-12-20T00:48:57;100112.28;;;1.99;100.00
19510;BME280;9896;42.486;26.506;2023-12-20T00:51:23;100106.03;;;2.00;100.00
19510;BME280;9896;42.486;26.506;2023-12-20T00:53:50;100103.94;;;1.94;100.00
19510;BME280;9896;42.486;26.506;2023-12-20T00:56:15;100107.94;;;1.70;100.00
19510;BME280;9896;42.486;26.506;2023-12-20T00:58:41;100105.88;;;1.64;100.00
19510;BME280;9896;42.486;26.506;2023-12-20T01:01:06;100101.91;;;1.51;100.00
19510;BME280;9896;42.486;26.506;2023-12-20T01:03:32;100100.66;;;1.35;100.00
19510;BME280;9896;42.486;26.506;2023-12-20T01:05:57;100090.56;;;1.02;100.00
19510;BME280;9896;42.486;26.506;2023-12-20T01:08:23;100093.22;;;1.12;100.00
19510;BME280;9896;42.486;26.506;2023-12-20T01:10:48;100088.94;;;1.01;100.00
19510;BME280;9896;42.486;26.506;2023-12-20T01:13:15;100078.19;;;1.12;100.00
19510;BME280;9896;42.486;26.506;2023-12-20T01:15:41;100077.78;;;1.07;100.00
19510;BME280;9896;42.486;26.506;2023-12-20T01:18:06;100081.69;;;1.03;100.00
19510;BME280;9896;42.486;26.506;2023-12-20T01:20:32;100074.34;;;0.97;100.00
19510;BME280;9896;42.486;26.506;2023-12-20T01:22:58;100078.25;;;0.93;100.00
19510;BME280;9896;42.486;26.506;2023-12-20T01:25:23;100071.28;;;0.82;100.00
19510;BME280;9896;42.486;26.506;2023-12-20T01:27:49;100074.22;;;0.89;100.00
19510;BME280;9896;42.486;26.506;2023-12-20T01:30:15;100070.03;;;0.96;100.00
19510;BME280;9896;42.486;26.506;2023-12-20T01:32:41;100058.88;;;1.02;100.00
19510;BME280;9896;42.486;26.506;2023-12-20T01:35:06;100050.28;;;1.10;100.00
19510;BME280;9896;42.486;26.506;2023-12-20T01:37:32;100046.50;;;1.12;100.00
19510;BME280;9896;42.486;26.506;2023-12-20T01:39:58;100053.19;;;1.16;100.00
19510;BME280;9896;42.486;26.506;2023-12-20T01:42:24;100040.50;;;1.20;100.00
19510;BME280;9896;42.486;26.506;2023-12-20T01:44:49;100038.13;;;1.26;100.00
19510;BME280;9896;42.486;26.506;2023-12-20T01:47:15;100041.72;;;1.35;100.00
19510;BME280;9896;42.486;26.506;2023-12-20T01:49:40;100031.41;;;1.42;100.00
19510;BME280;9896;42.486;26.506;2023-12-20T01:52:07;100030.16;;;1.46;100.00
19510;BME280;9896;42.486;26.506;2023-12-20T01:54:34;100028.72;;;1.51;100.00
19510;BME280;9896;42.486;26.506;2023-12-20T01:57:00;100028.81;;;1.59;100.00
19510;BME280;9896;42.486;26.506;2023-12-20T01:59:26;100028.06;;;1.49;100.00
19510;BME280;9896;42.486;26.506;2023-12-20T02:01:54;100016.00;;;1.37;100.00
19510;BME280;9896;42.486;26.506;2023-12-20T02:04:20;100020.03;;;1.31;100.00
19510;BME280;9896;42.486;26.506;2023-12-20T02:06:46;100015.81;;;1.48;100.00
19510;BME280;9896;42.486;26.506;2023-12-20T02:09:12;100011.88;;;1.25;100.00
19510;BME280;9896;42.486;26.506;2023-12-20T02:11:38;100006.00;;;1.31;100.00
19510;BME280;9896;42.486;26.506;2023-12-20T02:14:04;100012.22;;;1.39;100.00
19510;BME280;9896;42.486;26.506;2023-12-20T02:16:30;100006.00;;;1.31;100.00
19510;BME280;9896;42.486;26.506;2023-12-20T02:18:55;100004.84;;;1.43;100.00
19510;BME280;9896;42.486;26.506;2023-12-20T02:21:34;99996.88;;;1.25;100.00
19510;BME280;9896;42.486;26.506;2023-12-20T02:24:00;99998.63;;;0.98;100.00
19510;BME280;9896;42.486;26.506;2023-12-20T02:26:26;99987.22;;;0.97;100.00
19510;BME280;9896;42.486;26.506;2023-12-20T02:28:52;99977.88;;;1.03;100.00
19510;BME280;9896;42.486;26.506;2023-12-20T02:31:21;99983.31;;;1.01;100.00
19510;BME280;9896;42.486;26.506;2023-12-20T02:33:47;99985.44;;;0.88;100.00
19510;BME280;9896;42.486;26.506;2023-12-20T02:36:13;99975.66;;;1.08;100.00
19510;BME280;9896;42.486;26.506;2023-12-20T02:38:38;99977.09;;;0.92;100.00
19510;BME280;9896;42.486;26.506;2023-12-20T02:41:04;99970.88;;;0.74;100.00
19510;BME280;9896;42.486;26.506;2023-12-20T02:43:29;99981.72;;;0.62;100.00
19510;BME280;9896;42.486;26.506;2023-12-20T02:45:55;99972.84;;;0.72;100.00
19510;BME280;9896;42.486;26.506;2023-12-20T02:48:21;99972.59;;;0.56;100.00
19510;BME280;9896;42.486;26.506;2023-12-20T02:50:47;99968.81;;;0.59;100.00
19510;BME280;9896;42.486;26.506;2023-12-20T02:53:13;99957.34;;;0.12;100.00
19510;BME280;9896;42.486;26.506;2023-12-20T02:55:38;99958.59;;;0.36;100.00
19510;BME280;9896;42.486;26.506;2023-12-20T02:58:04;99955.81;;;-0.01;100.00
19510;BME280;9896;42.486;26.506;2023-12-20T03:00:30;99954.84;;;0.10;100.00
19510;BME280;9896;42.486;26.506;2023-12-20T03:02:55;99956.50;;;0.11;100.00
19510;BME280;9896;42.486;26.506;2023-12-20T03:05:21;99943.44;;;-0.19;100.00
19510;BME280;9896;42.486;26.506;2023-12-20T03:07:46;99949.56;;;-0.09;100.00
19510;BME280;9896;42.486;26.506;2023-12-20T03:10:12;99953.03;;;0.01;100.00
19510;BME280;9896;42.486;26.506;2023-12-20T03:12:37;99956.78;;;0.18;100.00
19510;BME280;9896;42.486;26.506;2023-12-20T03:15:03;99953.44;;;0.25;100.00
19510;BME280;9896;42.486;26.506;2023-12-20T03:17:29;99959.69;;;0.05;100.00
19510;BME280;9896;42.486;26.506;2023-12-20T03:19:55;99963.13;;;-0.04;100.00
19510;BME280;9896;42.486;26.506;2023-12-20T03:22:21;99958.66;;;-0.32;100.00
19510;BME280;9896;42.486;26.506;2023-12-20T03:24:46;99955.63;;;-0.37;100.00
19510;BME280;9896;42.486;26.506;2023-12-20T03:27:12;99953.09;;;-0.39;100.00
19510;BME280;9896;42.486;26.506;2023-12-20T03:29:37;99955.72;;;-0.49;100.00
19510;BME280;9896;42.486;26.506;2023-12-20T03:32:03;99949.34;;;-0.36;100.00
19510;BME280;9896;42.486;26.506;2023-12-20T03:34:29;99932.91;;;-0.29;100.00
19510;BME280;9896;42.486;26.506;2023-12-20T03:36:54;99935.78;;;-0.41;100.00
19510;BME280;9896;42.486;26.506;2023-12-20T03:39:20;99917.91;;;-0.38;100.00
19510;BME280;9896;42.486;26.506;2023-12-20T03:41:45;99926.50;;;-0.26;100.00
19510;BME280;9896;42.486;26.506;2023-12-20T03:44:11;99933.72;;;-0.19;100.00
19510;BME280;9896;42.486;26.506;2023-12-20T03:46:36;99934.25;;;-0.44;100.00
19510;BME280;9896;42.486;26.506;2023-12-20T03:49:02;99931.53;;;-0.73;100.00
19510;BME280;9896;42.486;26.506;2023-12-20T03:51:27;99925.06;;;-0.59;100.00
19510;BME280;9896;42.486;26.506;2023-12-20T03:53:53;99924.34;;;-0.71;100.00
19510;BME280;9896;42.486;26.506;2023-12-20T03:56:19;99927.16;;;-0.53;100.00
19510;BME280;9896;42.486;26.506;2023-12-20T03:58:44;99929.78;;;-0.63;100.00
19510;BME280;9896;42.486;26.506;2023-12-20T04:01:10;99923.53;;;-0.52;100.00
19510;BME280;9896;42.486;26.506;2023-12-20T04:03:38;99913.41;;;-0.57;100.00
19510;BME280;9896;42.486;26.506;2023-12-20T04:06:03;99915.41;;;-0.39;100.00
19510;BME280;9896;42.486;26.506;2023-12-20T04:08:29;99904.84;;;-0.59;100.00
19510;BME280;9896;42.486;26.506;2023-12-20T04:10:54;99912.50;;;-0.46;100.00
19510;BME280;9896;42.486;26.506;2023-12-20T04:13:20;99915.94;;;-0.36;100.00
19510;BME280;9896;42.486;26.506;2023-12-20T04:15:46;99912.19;;;-0.43;100.00
19510;BME280;9896;42.486;26.506;2023-12-20T04:18:11;99909.41;;;-0.51;100.00
19510;BME280;9896;42.486;26.506;2023-12-20T04:20:37;99906.34;;;-0.56;100.00
19510;BME280;9896;42.486;26.506;2023-12-20T04:23:02;99901.91;;;-0.56;100.00
19510;BME280;9896;42.486;26.506;2023-12-20T04:25:28;99897.75;;;-0.49;100.00
19510;BME280;9896;42.486;26.506;2023-12-20T04:27:53;99896.13;;;-0.40;100.00
19510;BME280;9896;42.486;26.506;2023-12-20T04:30:19;99896.00;;;-0.38;100.00
19510;BME280;9896;42.486;26.506;2023-12-20T04:32:45;99898.50;;;-0.37;100.00
19510;BME280;9896;42.486;26.506;2023-12-20T04:35:10;99901.81;;;-0.35;100.00
19510;BME280;9896;42.486;26.506;2023-12-20T04:37:36;99903.19;;;-0.40;100.00
19510;BME280;9896;42.486;26.506;2023-12-20T04:40:01;99898.50;;;-0.08;100.00
19510;BME280;9896;42.486;26.506;2023-12-20T04:42:27;99906.53;;;-0.19;100.00
19510;BME280;9896;42.486;26.506;2023-12-20T04:44:53;99895.84;;;-0.47;100.00
19510;BME280;9896;42.486;26.506;2023-12-20T04:47:18;99893.38;;;-0.29;100.00
19510;BME280;9896;42.486;26.506;2023-12-20T04:49:44;99891.53;;;-0.57;100.00
19510;BME280;9896;42.486;26.506;2023-12-20T04:52:10;99894.28;;;-0.68;100.00
19510;BME280;9896;42.486;26.506;2023-12-20T04:54:35;99889.97;;;-0.69;100.00
19510;BME280;9896;42.486;26.506;2023-12-20T04:57:01;99895.53;;;-0.63;100.00
19510;BME280;9896;42.486;26.506;2023-12-20T04:59:26;99886.69;;;-0.62;100.00
19510;BME280;9896;42.486;26.506;2023-12-20T05:01:52;99887.38;;;-0.40;100.00
19510;BME280;9896;42.486;26.506;2023-12-20T05:04:17;99874.66;;;-0.26;100.00
19510;BME280;9896;42.486;26.506;2023-12-20T05:06:43;99879.75;;;-0.43;100.00
19510;BME280;9896;42.486;26.506;2023-12-20T05:09:09;99883.09;;;-0.51;100.00
19510;BME280;9896;42.486;26.506;2023-12-20T05:11:34;99880.81;;;-0.65;100.00
19510;BME280;9896;42.486;26.506;2023-12-20T05:14:00;99888.00;;;-0.77;100.00
19510;BME280;9896;42.486;26.506;2023-12-20T05:16:26;99890.13;;;-1.11;100.00
19510;BME280;9896;42.486;26.506;2023-12-20T05:18:51;99882.41;;;-1.03;100.00
19510;BME280;9896;42.486;26.506;2023-12-20T05:21:18;99881.41;;;-1.11;100.00
19510;BME280;9896;42.486;26.506;2023-12-20T05:23:43;99875.31;;;-1.12;100.00
19510;BME280;9896;42.486;26.506;2023-12-20T05:26:09;99881.69;;;-1.05;100.00
19510;BME280;9896;42.486;26.506;2023-12-20T05:28:35;99884.31;;;-1.05;100.00
19510;BME280;9896;42.486;26.506;2023-12-20T05:31:00;99878.78;;;-1.02;100.00
19510;BME280;9896;42.486;26.506;2023-12-20T05:33:26;99882.69;;;-0.96;100.00
19510;BME280;9896;42.486;26.506;2023-12-20T05:35:51;99873.84;;;-0.85;100.00
19510;BME280;9896;42.486;26.506;2023-12-20T05:38:17;99871.66;;;-1.20;100.00
19510;BME280;9896;42.486;26.506;2023-12-20T05:40:42;99877.06;;;-1.22;100.00
19510;BME280;9896;42.486;26.506;2023-12-20T05:43:08;99872.28;;;-1.37;100.00
19510;BME280;9896;42.486;26.506;2023-12-20T05:45:34;99868.16;;;-1.30;100.00
19510;BME280;9896;42.486;26.506;2023-12-20T05:47:59;99861.28;;;-1.22;100.00
19510;BME280;9896;42.486;26.506;2023-12-20T05:50:25;99862.66;;;-1.18;100.00
19510;BME280;9896;42.486;26.506;2023-12-20T05:52:51;99858.06;;;-1.35;100.00
19510;BME280;9896;42.486;26.506;2023-12-20T05:55:16;99857.13;;;-1.24;100.00
19510;BME280;9896;42.486;26.506;2023-12-20T05:57:42;99856.19;;;-1.14;100.00
19510;BME280;9896;42.486;26.506;2023-12-20T06:00:09;99852.38;;;-1.30;100.00
19510;BME280;9896;42.486;26.506;2023-12-20T06:02:35;99854.19;;;-1.31;100.00
19510;BME280;9896;42.486;26.506;2023-12-20T06:05:03;99852.41;;;-1.21;100.00
19510;BME280;9896;42.486;26.506;2023-12-20T06:07:29;99852.75;;;-1.14;100.00
19510;BME280;9896;42.486;26.506;2023-12-20T06:09:58;99852.53;;;-1.32;100.00
19510;BME280;9896;42.486;26.506;2023-12-20T06:12:24;99853.34;;;-1.31;100.00
19510;BME280;9896;42.486;26.506;2023-12-20T06:14:52;99839.16;;;-1.10;100.00
19510;BME280;9896;42.486;26.506;2023-12-20T06:17:17;99846.88;;;-1.27;100.00
19510;BME280;9896;42.486;26.506;2023-12-20T06:19:43;99845.09;;;-1.17;100.00
19510;BME280;9896;42.486;26.506;2023-12-20T06:22:10;99850.78;;;-1.12;100.00
19510;BME280;9896;42.486;26.506;2023-12-20T06:24:36;99852.47;;;-1.11;100.00
19510;BME280;9896;42.486;26.506;2023-12-20T06:27:01;99848.06;;;-1.01;100.00
19510;BME280;9896;42.486;26.506;2023-12-20T06:29:28;99842.94;;;-1.03;100.00
19510;BME280;9896;42.486;26.506;2023-12-20T06:31:53;99847.00;;;-1.29;100.00
19510;BME280;9896;42.486;26.506;2023-12-20T06:34:19;99847.00;;;-1.29;100.00
19510;BME280;9896;42.486;26.506;2023-12-20T06:36:44;99844.72;;;-1.03;100.00
19510;BME280;9896;42.486;26.506;2023-12-20T06:39:10;99844.56;;;-1.11;100.00
19510;BME280;9896;42.486;26.506;2023-12-20T06:41:38;99836.59;;;-0.90;100.00
19510;BME280;9896;42.486;26.506;2023-12-20T06:44:03;99836.00;;;-1.04;100.00
19510;BME280;9896;42.486;26.506;2023-12-20T06:46:29;99828.75;;;-1.21;100.00
19510;BME280;9896;42.486;26.506;2023-12-20T06:48:54;99816.38;;;-0.90;100.00
19510;BME280;9896;42.486;26.506;2023-12-20T06:51:20;99824.84;;;-0.77;100.00
19510;BME280;9896;42.486;26.506;2023-12-20T06:53:46;99829.50;;;-1.00;100.00
19510;BME280;9896;42.486;26.506;2023-12-20T06:56:11;99831.09;;;-1.18;100.00
19510;BME280;9896;42.486;26.506;2023-12-20T06:58:37;99823.81;;;-1.05;100.00
19510;BME280;9896;42.486;26.506;2023-12-20T07:01:03;99825.72;;;-0.57;100.00
19510;BME280;9896;42.486;26.506;2023-12-20T07:03:29;99818.16;;;-1.00;100.00
19510;BME280;9896;42.486;26.506;2023-12-20T07:05:55;99828.75;;;-0.52;100.00
19510;BME280;9896;42.486;26.506;2023-12-20T07:08:21;99826.13;;;-0.33;100.00
19510;BME280;9896;42.486;26.506;2023-12-20T07:10:46;99817.50;;;-0.16;100.00
19510;BME280;9896;42.486;26.506;2023-12-20T07:13:12;99819.47;;;-0.47;100.00
19510;BME280;9896;42.486;26.506;2023-12-20T07:15:38;99814.03;;;-0.83;100.00
19510;BME280;9896;42.486;26.506;2023-12-20T07:18:04;99821.06;;;-0.94;100.00
19510;BME280;9896;42.486;26.506;2023-12-20T07:20:30;99812.47;;;-0.96;100.00
19510;BME280;9896;42.486;26.506;2023-12-20T07:22:56;99805.88;;;-0.13;100.00
19510;BME280;9896;42.486;26.506;2023-12-20T07:25:21;99807.09;;;-0.08;100.00
19510;BME280;9896;42.486;26.506;2023-12-20T07:27:47;99807.50;;;0.07;100.00
19510;BME280;9896;42.486;26.506;2023-12-20T07:30:13;99804.56;;;0.10;100.00
19510;BME280;9896;42.486;26.506;2023-12-20T07:32:38;99808.41;;;0.35;100.00
19510;BME280;9896;42.486;26.506;2023-12-20T07:35:04;99812.47;;;0.20;100.00
19510;BME280;9896;42.486;26.506;2023-12-20T07:37:30;99803.94;;;-0.21;100.00
19510;BME280;9896;42.486;26.506;2023-12-20T07:39:56;99800.88;;;-0.35;100.00
19510;BME280;9896;42.486;26.506;2023-12-20T07:42:22;99805.47;;;-0.37;100.00
19510;BME280;9896;42.486;26.506;2023-12-20T07:44:47;99806.56;;;-0.40;100.00
19510;BME280;9896;42.486;26.506;2023-12-20T07:47:13;99805.19;;;-0.54;100.00
19510;BME280;9896;42.486;26.506;2023-12-20T07:49:42;99801.03;;;-0.18;100.00
19510;BME280;9896;42.486;26.506;2023-12-20T07:52:08;99805.72;;;-0.40;100.00
19510;BME280;9896;42.486;26.506;2023-12-20T07:54:33;99789.31;;;-1.02;100.00
19510;BME280;9896;42.486;26.506;2023-12-20T07:56:59;99786.03;;;-0.27;100.00
19510;BME280;9896;42.486;26.506;2023-12-20T07:59:25;99789.72;;;0.83;100.00
19510;BME280;9896;42.486;26.506;2023-12-20T08:01:50;99793.72;;;1.32;100.00
19510;BME280;9896;42.486;26.506;2023-12-20T08:04:15;99805.41;;;0.84;100.00
19510;BME280;9896;42.486;26.506;2023-12-20T08:06:41;99804.72;;;0.82;100.00
19510;BME280;9896;42.486;26.506;2023-12-20T08:09:07;99797.59;;;0.92;100.00
19510;BME280;9896;42.486;26.506;2023-12-20T08:11:32;99796.38;;;0.60;100.00
19510;BME280;9896;42.486;26.506;2023-12-20T08:13:58;99793.47;;;0.16;100.00
19510;BME280;9896;42.486;26.506;2023-12-20T08:16:23;99793.91;;;0.12;100.00
19510;BME280;9896;42.486;26.506;2023-12-20T08:18:50;99786.25;;;0.09;100.00
19510;BME280;9896;42.486;26.506;2023-12-20T08:21:16;99794.97;;;0.19;100.00
19510;BME280;9896;42.486;26.506;2023-12-20T08:23:45;99785.38;;;0.64;100.00
19510;BME280;9896;42.486;26.506;2023-12-20T08:26:11;99778.78;;;1.58;100.00
19510;BME280;9896;42.486;26.506;2023-12-20T08:28:37;99767.78;;;1.63;100.00
19510;BME280;9896;42.486;26.506;2023-12-20T08:31:02;99770.44;;;1.88;100.00
19510;BME280;9896;42.486;26.506;2023-12-20T08:33:28;99765.19;;;1.71;100.00
19510;BME280;9896;42.486;26.506;2023-12-20T08:35:54;99764.63;;;1.67;100.00
19510;BME280;9896;42.486;26.506;2023-12-20T08:38:19;99763.75;;;2.62;100.00
19510;BME280;9896;42.486;26.506;2023-12-20T08:40:45;99749.56;;;2.71;100.00
19510;BME280;9896;42.486;26.506;2023-12-20T08:43:10;99755.19;;;2.08;100.00
19510;BME280;9896;42.486;26.506;2023-12-20T08:45:36;99753.22;;;2.78;100.00
19510;BME280;9896;42.486;26.506;2023-12-20T08:48:02;99748.72;;;3.28;100.00
19510;BME280;9896;42.486;26.506;2023-12-20T08:50:29;99740.47;;;2.73;100.00
19510;BME280;9896;42.486;26.506;2023-12-20T08:52:54;99724.75;;;2.30;100.00
19510;BME280;9896;42.486;26.506;2023-12-20T08:55:20;99723.66;;;2.99;100.00
19510;BME280;9896;42.486;26.506;2023-12-20T08:57:45;99716.09;;;2.62;100.00
19510;BME280;9896;42.486;26.506;2023-12-20T09:00:12;99715.59;;;1.91;100.00
19510;BME280;9896;42.486;26.506;2023-12-20T09:02:37;99715.31;;;1.76;100.00
19510;BME280;9896;42.486;26.506;2023-12-20T09:05:04;99703.50;;;2.48;100.00
19510;BME280;9896;42.486;26.506;2023-12-20T09:07:30;99702.47;;;2.91;100.00
19510;BME280;9896;42.486;26.506;2023-12-20T09:09:57;99702.81;;;3.04;100.00
19510;BME280;9896;42.486;26.506;2023-12-20T09:12:24;99698.88;;;2.50;100.00
19510;BME280;9896;42.486;26.506;2023-12-20T09:14:51;99690.59;;;2.53;100.00
19510;BME280;9896;42.486;26.506;2023-12-20T09:17:18;99682.00;;;2.51;100.00
19510;BME280;9896;42.486;26.506;2023-12-20T09:19:44;99676.00;;;3.71;100.00
19510;BME280;9896;42.486;26.506;2023-12-20T09:22:10;99675.63;;;3.99;100.00
19510;BME280;9896;42.486;26.506;2023-12-20T09:24:36;99666.53;;;3.77;100.00
19510;BME280;9896;42.486;26.506;2023-12-20T09:27:03;99673.34;;;4.35;100.00
19510;BME280;9896;42.486;26.506;2023-12-20T09:29:28;99669.63;;;5.05;100.00
19510;BME280;9896;42.486;26.506;2023-12-20T09:31:54;99666.34;;;4.42;100.00
19510;BME280;9896;42.486;26.506;2023-12-20T09:34:20;99662.88;;;4.72;100.00
19510;BME280;9896;42.486;26.506;2023-12-20T09:36:47;99644.44;;;4.48;100.00
19510;BME280;9896;42.486;26.506;2023-12-20T09:39:16;99645.06;;;4.50;100.00
19510;BME280;9896;42.486;26.506;2023-12-20T09:42:02;99639.59;;;5.42;100.00
19510;BME280;9896;42.486;26.506;2023-12-20T09:44:28;99640.84;;;6.06;100.00
19510;BME280;9896;42.486;26.506;2023-12-20T09:46:55;99637.78;;;6.10;100.00
19510;BME280;9896;42.486;26.506;2023-12-20T09:49:21;99630.84;;;5.56;100.00
19510;BME280;9896;42.486;26.506;2023-12-20T09:51:47;99624.06;;;5.54;100.00
19510;BME280;9896;42.486;26.506;2023-12-20T09:54:20;99617.19;;;7.05;100.00
19510;BME280;9896;42.486;26.506;2023-12-20T09:56:47;99624.03;;;7.14;100.00
19510;BME280;9896;42.486;26.506;2023-12-20T09:59:13;99622.50;;;7.26;100.00
19510;BME280;9896;42.486;26.506;2023-12-20T10:01:40;99622.97;;;7.29;100.00
19510;BME280;9896;42.486;26.506;2023-12-20T10:04:07;99611.06;;;7.32;100.00
19510;BME280;9896;42.486;26.506;2023-12-20T10:06:42;99604.28;;;6.87;100.00
19510;BME280;9896;42.486;26.506;2023-12-20T10:09:11;99597.97;;;6.01;100.00
19510;BME280;9896;42.486;26.506;2023-12-20T10:11:38;99593.53;;;7.44;100.00
19510;BME280;9896;42.486;26.506;2023-12-20T10:14:05;99600.78;;;8.25;100.00
19510;BME280;9896;42.486;26.506;2023-12-20T10:16:32;99592.03;;;9.25;100.00
19510;BME280;9896;42.486;26.506;2023-12-20T10:18:58;99594.38;;;8.20;100.00
19510;BME280;9896;42.486;26.506;2023-12-20T10:21:25;99582.50;;;8.22;100.00
19510;BME280;9896;42.486;26.506;2023-12-20T10:23:55;99581.47;;;8.77;100.00
19510;BME280;9896;42.486;26.506;2023-12-20T10:26:27;99576.38;;;9.42;100.00
19510;BME280;9896;42.486;26.506;2023-12-20T10:28:54;99567.47;;;10.51;100.00
19510;BME280;9896;42.486;26.506;2023-12-20T10:31:30;99555.47;;;10.92;100.00
19510;BME280;9896;42.486;26.506;2023-12-20T10:34:00;99556.25;;;11.91;97.66
19510;BME280;9896;42.486;26.506;2023-12-20T10:36:27;99549.31;;;12.80;93.58
19510;BME280;9896;42.486;26.506;2023-12-20T10:38:54;99563.84;;;12.49;94.07
19510;BME280;9896;42.486;26.506;2023-12-20T10:41:30;99556.75;;;12.54;95.17
19510;BME280;9896;42.486;26.506;2023-12-20T10:44:01;99546.81;;;11.14;100.00
19510;BME280;9896;42.486;26.506;2023-12-20T10:46:27;99545.06;;;11.94;99.03
19510;BME280;9896;42.486;26.506;2023-12-20T10:48:54;99534.78;;;11.66;100.00
19510;BME280;9896;42.486;26.506;2023-12-20T10:51:21;99533.22;;;10.85;100.00
19510;BME280;9896;42.486;26.506;2023-12-20T10:53:48;99531.56;;;11.58;100.00
19510;BME280;9896;42.486;26.506;2023-12-20T10:56:16;99523.72;;;10.57;100.00
19510;BME280;9896;42.486;26.506;2023-12-20T10:58:43;99519.69;;;10.42;100.00
19510;BME280;9896;42.486;26.506;2023-12-20T11:01:12;99520.25;;;10.82;100.00
19510;BME280;9896;42.486;26.506;2023-12-20T11:03:43;99521.53;;;10.41;100.00
19510;BME280;9896;42.486;26.506;2023-12-20T11:06:39;99508.97;;;11.47;100.00
19510;BME280;9896;42.486;26.506;2023-12-20T11:11:42;99502.88;;;10.84;100.00
19510;BME280;9896;42.486;26.506;2023-12-20T11:14:41;99502.88;;;10.59;100.00
19510;BME280;9896;42.486;26.506;2023-12-20T11:17:06;99502.13;;;11.02;100.00
19510;BME280;9896;42.486;26.506;2023-12-20T11:19:32;99498.06;;;9.79;100.00
19510;BME280;9896;42.486;26.506;2023-12-20T11:21:58;99495.78;;;9.89;100.00
19510;BME280;9896;42.486;26.506;2023-12-20T11:24:25;99486.00;;;9.50;100.00
19510;BME280;9896;42.486;26.506;2023-12-20T11:26:55;99477.13;;;10.14;100.00
19510;BME280;9896;42.486;26.506;2023-12-20T11:29:37;99470.09;;;10.57;100.00
19510;BME280;9896;42.486;26.506;2023-12-20T11:32:03;99465.88;;;10.43;100.00
19510;BME280;9896;42.486;26.506;2023-12-20T11:34:51;99456.50;;;10.52;100.00
19510;BME280;9896;42.486;26.506;2023-12-20T11:37:19;99459.50;;;10.94;100.00
19510;BME280;9896;42.486;26.506;2023-12-20T11:39:45;99449.59;;;10.38;100.00
19510;BME280;9896;42.486;26.506;2023-12-20T11:42:11;99449.81;;;10.37;100.00
19510;BME280;9896;42.486;26.506;2023-12-20T11:44:37;99434.22;;;10.83;100.00
19510;BME280;9896;42.486;26.506;2023-12-20T11:47:03;99429.41;;;11.53;100.00
19510;BME280;9896;42.486;26.506;2023-12-20T11:49:29;99428.25;;;11.97;100.00
19510;BME280;9896;42.486;26.506;2023-12-20T11:51:56;99434.59;;;11.66;100.00
19510;BME280;9896;42.486;26.506;2023-12-20T11:54:22;99421.84;;;11.25;100.00
19510;BME280;9896;42.486;26.506;2023-12-20T11:56:48;99430.38;;;11.77;100.00
19510;BME280;9896;42.486;26.506;2023-12-20T11:59:14;99417.06;;;11.63;100.00
19510;BME280;9896;42.486;26.506;2023-12-20T12:01:40;99420.22;;;11.79;100.00
19510;BME280;9896;42.486;26.506;2023-12-20T12:04:06;99412.88;;;12.34;100.00
19510;BME280;9896;42.486;26.506;2023-12-20T12:06:32;99400.53;;;11.85;100.00
19510;BME280;9896;42.486;26.506;2023-12-20T12:08:59;99404.13;;;12.08;100.00
19510;BME280;9896;42.486;26.506;2023-12-20T12:11:24;99400.75;;;11.47;100.00
19510;BME280;9896;42.486;26.506;2023-12-20T12:13:50;99386.03;;;11.68;100.00
19510;BME280;9896;42.486;26.506;2023-12-20T12:16:22;99378.19;;;11.66;100.00
19510;BME280;9896;42.486;26.506;2023-12-20T12:19:05;99381.19;;;11.58;100.00
19510;BME280;9896;42.486;26.506;2023-12-20T12:21:31;99382.94;;;12.00;100.00
19510;BME280;9896;42.486;26.506;2023-12-20T12:24:07;99370.94;;;11.73;100.00
19510;BME280;9896;42.486;26.506;2023-12-20T12:26:33;99372.94;;;11.78;100.00
19510;BME280;9896;42.486;26.506;2023-12-20T12:28:59;99367.47;;;11.84;100.00
19510;BME280;9896;42.486;26.506;2023-12-20T12:31:24;99374.84;;;11.71;100.00
19510;BME280;9896;42.486;26.506;2023-12-20T12:33:52;99362.25;;;11.89;100.00
19510;BME280;9896;42.486;26.506;2023-12-20T12:36:17;99362.97;;;12.38;99.95
19510;BME280;9896;42.486;26.506;2023-12-20T12:38:43;99357.91;;;12.30;98.41
19510;BME280;9896;42.486;26.506;2023-12-20T12:41:09;99358.78;;;12.53;98.97
19510;BME280;9896;42.486;26.506;2023-12-20T12:43:36;99354.38;;;12.18;96.69
19510;BME280;9896;42.486;26.506;2023-12-20T12:46:01;99356.03;;;11.71;100.00
19510;BME280;9896;42.486;26.506;2023-12-20T12:48:27;99350.59;;;12.72;98.13
19510;BME280;9896;42.486;26.506;2023-12-20T12:50:54;99351.31;;;13.14;96.73